sensor_id;sensor_type;location;lat;lon;timestamp;pressure;altitude;pressure_sealevel;temperature;humidity
59435;BME280;45241;49.768;8.636;2023-08-17T16:17:53;100112.44;;;34.02;67.40
59435;BME280;45241;49.768;8.636;2023-08-17T16:20:18;100121.47;;;33.37;68.15
59435;BME280;45241;49.768;8.636;2023-08-17T16:22:44;100121.69;;;32.75;70.67
59435;BME280;45241;49.768;8.636;2023-08-17T16:25:09;100113.28;;;32.30;74.51
59435;BME280;45241;49.768;8.636;2023-08-17T16:27:34;100107.78;;;32.21;73.24
59435;BME280;45241;49.768;8.636;2023-08-17T16:30:00;100108.38;;;33.01;71.70
59435;BME280;45241;49.768;8.636;2023-08-17T16:32:25;100117.66;;;35.97;61.66
59435;BME280;45241;49.768;8.636;2023-08-17T16:34:50;100125.91;;;35.43;61.68
59435;BME280;45241;49.768;8.636;2023-08-17T16:37:16;100125.84;;;33.26;70.01
59435;BME280;45241;49.768;8.636;2023-08-17T16:39:43;100133.66;;;34.90;65.38
59435;BME280;45241;49.768;8.636;2023-08-17T16:42:09;100141.09;;;36.90;57.37
59435;BME280;45241;49.768;8.636;2023-08-17T16:44:34;100134.72;;;37.31;56.65
59435;BME280;45241;49.768;8.636;2023-08-17T16:46:59;100134.66;;;36.85;58.65
59435;BME280;45241;49.768;8.636;2023-08-17T16:49:25;100134.81;;;37.88;57.52
59435;BME280;45241;49.768;8.636;2023-08-17T16:51:50;100134.81;;;37.38;55.56
59435;BME280;45241;49.768;8.636;2023-08-17T16:54:15;100147.75;;;36.81;58.28
59435;BME280;45241;49.768;8.636;2023-08-17T16:56:41;100143.19;;;36.73;58.74
59435;BME280;45241;49.768;8.636;2023-08-17T16:59:11;100147.16;;;36.34;58.19
59435;BME280;45241;49.768;8.636;2023-08-17T17:01:38;100156.28;;;35.80;59.84
59435;BME280;45241;49.768;8.636;2023-08-17T17:04:05;100163.66;;;36.23;57.70
59435;BME280;45241;49.768;8.636;2023-08-17T17:06:30;100164.78;;;36.38;57.32
59435;BME280;45241;49.768;8.636;2023-08-17T17:08:55;100168.44;;;36.22;58.71
59435;BME280;45241;49.768;8.636;2023-08-17T17:11:21;100176.25;;;36.91;56.21
59435;BME280;45241;49.768;8.636;2023-08-17T17:13:46;100163.97;;;35.51;60.32
59435;BME280;45241;49.768;8.636;2023-08-17T18:55:22;100174.50;;;27.14;100.00
59435;BME280;45241;49.768;8.636;2023-08-17T18:57:48;100180.00;;;27.14;100.00
59435;BME280;45241;49.768;8.636;2023-08-17T19:00:15;100185.91;;;27.07;100.00
59435;BME280;45241;49.768;8.636;2023-08-17T19:02:41;100178.38;;;26.61;100.00
59435;BME280;45241;49.768;8.636;2023-08-17T19:05:07;100174.38;;;26.54;100.00
59435;BME280;45241;49.768;8.636;2023-08-17T19:07:33;100183.19;;;26.69;100.00
59435;BME280;45241;49.768;8.636;2023-08-17T19:09:58;100178.31;;;26.48;100.00
59435;BME280;45241;49.768;8.636;2023-08-17T19:12:24;100189.09;;;26.25;100.00
59435;BME280;45241;49.768;8.636;2023-08-17T19:14:49;100177.03;;;26.21;100.00
59435;BME280;45241;49.768;8.636;2023-08-17T19:17:17;100184.63;;;26.29;100.00
59435;BME280;45241;49.768;8.636;2023-08-17T19:19:42;100185.59;;;25.96;100.00
59435;BME280;45241;49.768;8.636;2023-08-17T19:22:08;100190.56;;;26.18;100.00
59435;BME280;45241;49.768;8.636;2023-08-17T19:24:33;100191.91;;;26.20;100.00
59435;BME280;45241;49.768;8.636;2023-08-17T19:26:59;100197.03;;;25.84;100.00
59435;BME280;45241;49.768;8.636;2023-08-17T21:11:53;100189.50;;;24.84;100.00
59435;BME280;45241;49.768;8.636;2023-08-17T21:14:19;100189.38;;;24.60;100.00
59435;BME280;45241;49.768;8.636;2023-08-17T21:16:44;100185.25;;;24.68;100.00
59435;BME280;45241;49.768;8.636;2023-08-17T21:19:09;100182.94;;;24.80;100.00
59435;BME280;45241;49.768;8.636;2023-08-17T21:21:35;100185.16;;;24.78;100.00
59435;BME280;45241;49.768;8.636;2023-08-17T21:24:00;100178.84;;;24.77;100.00
59435;BME280;45241;49.768;8.636;2023-08-17T21:26:25;100181.28;;;24.79;100.00
59435;BME280;45241;49.768;8.636;2023-08-17T21:28:51;100168.50;;;24.69;100.00
59435;BME280;45241;49.768;8.636;2023-08-17T21:31:16;100168.25;;;24.60;100.00
59435;BME280;45241;49.768;8.636;2023-08-17T21:33:41;100165.75;;;24.64;100.00
59435;BME280;45241;49.768;8.636;2023-08-17T21:36:07;100163.56;;;24.71;100.00
59435;BME280;45241;49.768;8.636;2023-08-17T21:38:32;100164.66;;;24.70;100.00
59435;BME280;45241;49.768;8.636;2023-08-17T21:40:58;100160.47;;;24.78;100.00
59435;BME280;45241;49.768;8.636;2023-08-17T21:43:24;100160.53;;;24.73;100.00
59435;BME280;45241;49.768;8.636;2023-08-17T21:45:50;100155.25;;;24.81;100.00
59435;BME280;45241;49.768;8.636;2023-08-17T21:48:18;100156.91;;;24.77;100.00
59435;BME280;45241;49.768;8.636;2023-08-17T21:50:43;100156.91;;;24.77;100.00
59435;BME280;45241;49.768;8.636;2023-08-17T21:53:08;100154.06;;;24.53;100.00
59435;BME280;45241;49.768;8.636;2023-08-17T21:55:34;100151.25;;;24.63;100.00
59435;BME280;45241;49.768;8.636;2023-08-17T21:57:59;100151.81;;;24.60;100.00
59435;BME280;45241;49.768;8.636;2023-08-17T22:00:25;100156.78;;;24.58;100.00
59435;BME280;45241;49.768;8.636;2023-08-17T22:02:50;100143.59;;;24.60;100.00
59435;BME280;45241;49.768;8.636;2023-08-17T22:05:16;100139.81;;;24.56;100.00
59435;BME280;45241;49.768;8.636;2023-08-17T22:07:41;100141.75;;;24.51;100.00
59435;BME280;45241;49.768;8.636;2023-08-17T22:10:07;100133.56;;;24.46;100.00
59435;BME280;45241;49.768;8.636;2023-08-17T22:12:32;100120.16;;;24.44;100.00
59435;BME280;45241;49.768;8.636;2023-08-17T22:15:26;100126.47;;;24.40;100.00
59435;BME280;45241;49.768;8.636;2023-08-17T22:17:52;100133.59;;;24.41;100.00
59435;BME280;45241;49.768;8.636;2023-08-17T22:20:17;100125.72;;;24.34;100.00
59435;BME280;45241;49.768;8.636;2023-08-17T22:22:43;100132.00;;;24.34;100.00
59435;BME280;45241;49.768;8.636;2023-08-17T22:25:09;100139.47;;;24.29;100.00
59435;BME280;45241;49.768;8.636;2023-08-17T22:27:35;100133.22;;;24.18;100.00
59435;BME280;45241;49.768;8.636;2023-08-17T22:30:00;100139.28;;;24.15;100.00
59435;BME280;45241;49.768;8.636;2023-08-17T22:32:25;100134.69;;;24.00;100.00
59435;BME280;45241;49.768;8.636;2023-08-17T22:34:50;100133.81;;;24.10;100.00
59435;BME280;45241;49.768;8.636;2023-08-17T22:37:16;100136.25;;;24.12;100.00
59435;BME280;45241;49.768;8.636;2023-08-17T22:39:42;100128.19;;;23.81;100.00
59435;BME280;45241;49.768;8.636;2023-08-17T22:42:07;100142.66;;;23.92;100.00
59435;BME280;45241;49.768;8.636;2023-08-17T22:44:33;100149.47;;;24.04;100.00
59435;BME280;45241;49.768;8.636;2023-08-17T22:46:58;100152.19;;;24.04;100.00
59435;BME280;45241;49.768;8.636;2023-08-17T22:49:23;100152.44;;;23.38;100.00
59435;BME280;45241;49.768;8.636;2023-08-17T22:51:49;100149.84;;;23.77;100.00
59435;BME280;45241;49.768;8.636;2023-08-17T22:54:15;100159.38;;;23.90;100.00
59435;BME280;45241;49.768;8.636;2023-08-17T22:56:40;100161.88;;;23.71;100.00
59435;BME280;45241;49.768;8.636;2023-08-17T22:59:06;100156.94;;;23.73;100.00
59435;BME280;45241;49.768;8.636;2023-08-17T23:01:31;100156.66;;;23.80;100.00
59435;BME280;45241;49.768;8.636;2023-08-17T23:03:56;100147.31;;;23.86;100.00
59435;BME280;45241;49.768;8.636;2023-08-17T23:06:22;100153.69;;;23.71;100.00
59435;BME280;45241;49.768;8.636;2023-08-17T23:08:47;100157.81;;;23.69;100.00
59435;BME280;45241;49.768;8.636;2023-08-17T23:11:12;100155.03;;;23.74;100.00
59435;BME280;45241;49.768;8.636;2023-08-17T23:13:38;100152.28;;;23.79;100.00
59435;BME280;45241;49.768;8.636;2023-08-17T23:16:03;100152.00;;;23.81;100.00
59435;BME280;45241;49.768;8.636;2023-08-17T23:18:29;100154.19;;;23.84;100.00
59435;BME280;45241;49.768;8.636;2023-08-17T23:20:55;100155.00;;;23.84;100.00
59435;BME280;45241;49.768;8.636;2023-08-17T23:23:20;100151.16;;;23.85;100.00
59435;BME280;45241;49.768;8.636;2023-08-17T23:25:45;100147.09;;;23.77;100.00
59435;BME280;45241;49.768;8.636;2023-08-17T23:28:11;100153.38;;;23.78;100.00
59435;BME280;45241;49.768;8.636;2023-08-17T23:30:38;100149.03;;;23.72;100.00
59435;BME280;45241;49.768;8.636;2023-08-17T23:33:04;100145.06;;;23.39;100.00
59435;BME280;45241;49.768;8.636;2023-08-17T23:35:33;100162.50;;;23.48;100.00
59435;BME280;45241;49.768;8.636;2023-08-17T23:37:58;100155.16;;;23.43;100.00
59435;BME280;45241;49.768;8.636;2023-08-17T23:40:24;100160.13;;;23.16;100.00
59435;BME280;45241;49.768;8.636;2023-08-17T23:42:50;100158.16;;;23.42;100.00
59435;BME280;45241;49.768;8.636;2023-08-17T23:45:15;100153.50;;;23.53;100.00
59435;BME280;45241;49.768;8.636;2023-08-17T23:47:41;100158.69;;;23.54;100.00
59435;BME280;45241;49.768;8.636;2023-08-17T23:50:08;100161.19;;;23.30;100.00
59435;BME280;45241;49.768;8.636;2023-08-17T23:52:35;100149.13;;;23.46;100.00
59435;BME280;45241;49.768;8.636;2023-08-17T23:55:00;100146.41;;;23.41;100.00
59435;BME280;45241;49.768;8.636;2023-08-17T23:57:28;100142.25;;;23.49;100.00
59435;BME280;45241;49.768;8.636;2023-08-17T23:59:53;100141.13;;;23.60;100.00
